< Typhoon 199101 1991 Season Typhoon 199103 >
Typhoon 199102 (TIM)
General InformationTrack Information on Google MapsDetailed Wind InformationList of All Images || Disaster Info.ResourceGoogle EarthGE AnimationAtom FeedGeoJSON
Detalied Best Track (Time Zone = UTC)
Year Month Day Hour Lat. Long. Pressure (hPa) Wind (kt) Class Image Chart
1991 3 20 00 3.5 159.5 1002 0 2 Image Chart
1991 3 20 06 4.3 159.0 1002 0 2 Image Chart
1991 3 20 12 5.0 158.5 1002 0 2 Image Chart
1991 3 20 18 5.5 158.0 1000 0 2 Image Chart
1991 3 21 00 6.0 157.0 1000 0 2 Image Chart
1991 3 21 06 6.5 155.9 1000 0 2 Image Chart
1991 3 21 12 7.3 154.9 1000 0 2 Image Chart
1991 3 21 18 8.4 154.3 1000 0 2 Image Chart
1991 3 22 00 9.9 154.1 998 35 3 Image Chart
1991 3 22 06 10.9 153.9 996 35 3 Image Chart
1991 3 22 12 11.7 153.7 994 40 3 Image Chart
1991 3 22 18 12.7 153.2 985 50 4 Image Chart
1991 3 23 00 13.6 152.6 980 55 4 Image Chart
1991 3 23 06 14.7 152.3 975 60 4 Image Chart
1991 3 23 12 15.7 152.3 975 60 4 Image Chart
1991 3 23 18 16.6 152.8 970 65 5 Image Chart
1991 3 24 00 17.4 153.3 970 65 5 Image Chart
1991 3 24 06 18.3 154.0 970 65 5 Image Chart
1991 3 24 12 19.0 154.8 970 65 5 Image Chart
1991 3 24 18 20.0 155.5 975 60 4 Image Chart
1991 3 25 00 20.5 156.0 980 55 4 Image Chart
1991 3 25 06 20.8 156.3 985 50 4 Image Chart
1991 3 25 12 21.0 156.6 990 45 3 Image Chart
1991 3 25 18 21.4 156.9 996 40 3 Image Chart
1991 3 26 00 21.8 157.1 1000 35 3 Image Chart
1991 3 26 06 22.0 157.5 1000 35 3 Image Chart
1991 3 26 12 22.3 157.8 1000 35 3 Image Chart
1991 3 26 18 22.8 158.1 1002 0 2 Image Chart
1991 3 27 00 23.2 159.0 1004 0 2 Image Chart
1991 3 27 06 23.9 160.0 1006 0 2 Image Chart
1991 3 27 12 24.0 161.5 1006 0 2 Image Chart
Japan Meteorological Agency Best Track Data | Correction Date : 1992-01-04
< Typhoon 199101 1991 Season Typhoon 199103 >

Help